sensor_id;sensor_type;location;lat;lon;timestamp;P1;durP1;ratioP1;P2;durP2;ratioP2
50337;SDS011;46221;51.178;5.900;2022-10-16T00:01:11;4.53;;;1.45;;
50337;SDS011;46221;51.178;5.900;2022-10-16T00:03:38;5.20;;;1.52;;
50337;SDS011;46221;51.178;5.900;2022-10-16T00:06:05;3.05;;;1.77;;
50337;SDS011;46221;51.178;5.900;2022-10-16T00:08:32;4.93;;;1.48;;
50337;SDS011;46221;51.178;5.900;2022-10-16T00:10:59;3.75;;;1.40;;
50337;SDS011;46221;51.178;5.900;2022-10-16T00:13:25;3.42;;;1.40;;
50337;SDS011;46221;51.178;5.900;2022-10-16T00:15:54;4.88;;;1.55;;
50337;SDS011;46221;51.178;5.900;2022-10-16T00:18:20;5.00;;;1.30;;
50337;SDS011;46221;51.178;5.900;2022-10-16T00:20:47;3.97;;;1.88;;
50337;SDS011;46221;51.178;5.900;2022-10-16T00:23:13;3.03;;;1.30;;
50337;SDS011;46221;51.178;5.900;2022-10-16T00:25:39;3.53;;;1.60;;
50337;SDS011;46221;51.178;5.900;2022-10-16T00:28:06;3.55;;;1.52;;
50337;SDS011;46221;51.178;5.900;2022-10-16T00:30:32;4.07;;;1.25;;
50337;SDS011;46221;51.178;5.900;2022-10-16T00:32:58;3.88;;;1.45;;
50337;SDS011;46221;51.178;5.900;2022-10-16T00:35:25;2.90;;;1.30;;
50337;SDS011;46221;51.178;5.900;2022-10-16T00:37:51;3.30;;;1.45;;
50337;SDS011;46221;51.178;5.900;2022-10-16T00:40:17;2.25;;;1.13;;
50337;SDS011;46221;51.178;5.900;2022-10-16T00:42:43;3.42;;;1.30;;
50337;SDS011;46221;51.178;5.900;2022-10-16T00:45:10;2.90;;;1.17;;
50337;SDS011;46221;51.178;5.900;2022-10-16T00:47:43;3.35;;;1.23;;
50337;SDS011;46221;51.178;5.900;2022-10-16T00:50:22;2.50;;;1.20;;
50337;SDS011;46221;51.178;5.900;2022-10-16T00:52:50;2.92;;;1.30;;
50337;SDS011;46221;51.178;5.900;2022-10-16T00:55:17;3.00;;;1.30;;
50337;SDS011;46221;51.178;5.900;2022-10-16T00:57:44;2.47;;;1.15;;
50337;SDS011;46221;51.178;5.900;2022-10-16T01:00:12;2.03;;;1.10;;
50337;SDS011;46221;51.178;5.900;2022-10-16T01:02:39;2.45;;;1.00;;
50337;SDS011;46221;51.178;5.900;2022-10-16T01:05:05;4.18;;;1.50;;
50337;SDS011;46221;51.178;5.900;2022-10-16T01:10:06;2.65;;;1.17;;
50337;SDS011;46221;51.178;5.900;2022-10-16T01:12:37;2.88;;;1.02;;
50337;SDS011;46221;51.178;5.900;2022-10-16T01:20:29;3.83;;;1.30;;
50337;SDS011;46221;51.178;5.900;2022-10-16T01:25:29;4.50;;;1.80;;
50337;SDS011;46221;51.178;5.900;2022-10-16T01:27:57;3.13;;;1.00;;
50337;SDS011;46221;51.178;5.900;2022-10-16T01:30:25;2.42;;;1.17;;
50337;SDS011;46221;51.178;5.900;2022-10-16T01:35:50;2.60;;;1.17;;
50337;SDS011;46221;51.178;5.900;2022-10-16T01:38:39;2.75;;;1.10;;
50337;SDS011;46221;51.178;5.900;2022-10-16T01:41:13;2.55;;;1.15;;
50337;SDS011;46221;51.178;5.900;2022-10-16T01:44:24;3.13;;;1.35;;
50337;SDS011;46221;51.178;5.900;2022-10-16T01:46:30;2.67;;;1.05;;
50337;SDS011;46221;51.178;5.900;2022-10-16T01:48:57;2.75;;;1.30;;
50337;SDS011;46221;51.178;5.900;2022-10-16T01:51:24;4.15;;;1.13;;
50337;SDS011;46221;51.178;5.900;2022-10-16T01:53:53;2.40;;;1.00;;
50337;SDS011;46221;51.178;5.900;2022-10-16T01:56:20;2.45;;;1.05;;
50337;SDS011;46221;51.178;5.900;2022-10-16T01:59:09;2.17;;;1.08;;
50337;SDS011;46221;51.178;5.900;2022-10-16T02:01:36;2.38;;;1.15;;
50337;SDS011;46221;51.178;5.900;2022-10-16T02:04:09;2.42;;;1.08;;
50337;SDS011;46221;51.178;5.900;2022-10-16T02:06:37;2.28;;;1.27;;
50337;SDS011;46221;51.178;5.900;2022-10-16T02:09:04;2.60;;;1.20;;
50337;SDS011;46221;51.178;5.900;2022-10-16T02:11:30;2.47;;;1.05;;
50337;SDS011;46221;51.178;5.900;2022-10-16T02:14:06;3.38;;;1.30;;
50337;SDS011;46221;51.178;5.900;2022-10-16T02:16:42;3.38;;;1.10;;
50337;SDS011;46221;51.178;5.900;2022-10-16T02:19:09;2.50;;;1.00;;
50337;SDS011;46221;51.178;5.900;2022-10-16T02:21:43;3.47;;;1.25;;
50337;SDS011;46221;51.178;5.900;2022-10-16T02:29:04;2.45;;;1.00;;
50337;SDS011;46221;51.178;5.900;2022-10-16T02:31:34;2.08;;;1.17;;
50337;SDS011;46221;51.178;5.900;2022-10-16T02:34:01;7.68;;;1.23;;
50337;SDS011;46221;51.178;5.900;2022-10-16T02:36:31;3.67;;;1.10;;
50337;SDS011;46221;51.178;5.900;2022-10-16T02:38:58;1.98;;;0.85;;
50337;SDS011;46221;51.178;5.900;2022-10-16T02:41:27;1.77;;;0.95;;
50337;SDS011;46221;51.178;5.900;2022-10-16T02:43:53;2.88;;;0.85;;
50337;SDS011;46221;51.178;5.900;2022-10-16T02:46:21;3.70;;;1.15;;
50337;SDS011;46221;51.178;5.900;2022-10-16T02:48:47;3.63;;;1.02;;
50337;SDS011;46221;51.178;5.900;2022-10-16T02:51:13;2.45;;;0.80;;
50337;SDS011;46221;51.178;5.900;2022-10-16T02:53:40;3.35;;;1.27;;
50337;SDS011;46221;51.178;5.900;2022-10-16T02:56:06;2.22;;;1.00;;
50337;SDS011;46221;51.178;5.900;2022-10-16T02:58:32;2.97;;;1.02;;
50337;SDS011;46221;51.178;5.900;2022-10-16T03:00:59;1.80;;;0.88;;
50337;SDS011;46221;51.178;5.900;2022-10-16T03:03:25;1.58;;;0.77;;
50337;SDS011;46221;51.178;5.900;2022-10-16T03:05:51;2.17;;;1.02;;
50337;SDS011;46221;51.178;5.900;2022-10-16T03:08:17;3.05;;;1.10;;
50337;SDS011;46221;51.178;5.900;2022-10-16T03:10:49;2.15;;;1.00;;
50337;SDS011;46221;51.178;5.900;2022-10-16T03:13:16;2.03;;;1.00;;
50337;SDS011;46221;51.178;5.900;2022-10-16T03:15:43;2.13;;;0.90;;
50337;SDS011;46221;51.178;5.900;2022-10-16T03:18:09;2.05;;;0.93;;
50337;SDS011;46221;51.178;5.900;2022-10-16T03:20:35;2.75;;;1.17;;
50337;SDS011;46221;51.178;5.900;2022-10-16T03:23:02;1.55;;;0.82;;
50337;SDS011;46221;51.178;5.900;2022-10-16T03:25:28;1.83;;;0.95;;
50337;SDS011;46221;51.178;5.900;2022-10-16T03:27:54;2.20;;;0.85;;
50337;SDS011;46221;51.178;5.900;2022-10-16T03:30:21;2.35;;;0.80;;
50337;SDS011;46221;51.178;5.900;2022-10-16T03:32:47;1.80;;;0.90;;
50337;SDS011;46221;51.178;5.900;2022-10-16T03:35:13;2.53;;;0.93;;
50337;SDS011;46221;51.178;5.900;2022-10-16T03:37:39;1.85;;;0.90;;
50337;SDS011;46221;51.178;5.900;2022-10-16T03:40:06;2.80;;;1.10;;
50337;SDS011;46221;51.178;5.900;2022-10-16T03:42:32;1.73;;;0.90;;
50337;SDS011;46221;51.178;5.900;2022-10-16T03:44:58;1.88;;;0.80;;
50337;SDS011;46221;51.178;5.900;2022-10-16T03:47:24;2.00;;;0.80;;
50337;SDS011;46221;51.178;5.900;2022-10-16T03:49:51;1.83;;;0.80;;
50337;SDS011;46221;51.178;5.900;2022-10-16T03:52:18;2.28;;;0.85;;
50337;SDS011;46221;51.178;5.900;2022-10-16T03:54:44;2.88;;;0.90;;
50337;SDS011;46221;51.178;5.900;2022-10-16T03:57:10;2.33;;;0.90;;
50337;SDS011;46221;51.178;5.900;2022-10-16T03:59:37;1.85;;;0.80;;
50337;SDS011;46221;51.178;5.900;2022-10-16T04:02:03;2.35;;;0.80;;
50337;SDS011;46221;51.178;5.900;2022-10-16T04:04:29;1.83;;;0.77;;
50337;SDS011;46221;51.178;5.900;2022-10-16T04:06:55;1.88;;;0.80;;
50337;SDS011;46221;51.178;5.900;2022-10-16T04:09:22;2.13;;;0.90;;
50337;SDS011;46221;51.178;5.900;2022-10-16T04:11:48;1.83;;;0.80;;
50337;SDS011;46221;51.178;5.900;2022-10-16T04:14:14;5.88;;;1.38;;
50337;SDS011;46221;51.178;5.900;2022-10-16T04:16:41;1.88;;;0.95;;
50337;SDS011;46221;51.178;5.900;2022-10-16T04:19:07;2.35;;;1.25;;
50337;SDS011;46221;51.178;5.900;2022-10-16T04:21:33;1.48;;;0.80;;
50337;SDS011;46221;51.178;5.900;2022-10-16T04:23:59;3.35;;;0.90;;
50337;SDS011;46221;51.178;5.900;2022-10-16T04:26:26;2.22;;;0.70;;
50337;SDS011;46221;51.178;5.900;2022-10-16T04:28:52;1.25;;;0.60;;
50337;SDS011;46221;51.178;5.900;2022-10-16T04:31:19;3.13;;;0.70;;
50337;SDS011;46221;51.178;5.900;2022-10-16T04:33:46;2.33;;;1.05;;
50337;SDS011;46221;51.178;5.900;2022-10-16T04:36:12;3.72;;;1.10;;
50337;SDS011;46221;51.178;5.900;2022-10-16T04:38:39;2.47;;;0.90;;
50337;SDS011;46221;51.178;5.900;2022-10-16T04:41:06;2.05;;;0.90;;
50337;SDS011;46221;51.178;5.900;2022-10-16T04:43:32;1.73;;;0.73;;
50337;SDS011;46221;51.178;5.900;2022-10-16T04:45:59;3.22;;;0.90;;
50337;SDS011;46221;51.178;5.900;2022-10-16T04:48:25;1.77;;;0.80;;
50337;SDS011;46221;51.178;5.900;2022-10-16T04:50:52;2.60;;;1.08;;
50337;SDS011;46221;51.178;5.900;2022-10-16T04:53:20;3.83;;;1.20;;
50337;SDS011;46221;51.178;5.900;2022-10-16T04:55:46;6.30;;;1.67;;
50337;SDS011;46221;51.178;5.900;2022-10-16T04:58:12;2.20;;;0.90;;
50337;SDS011;46221;51.178;5.900;2022-10-16T05:00:39;2.08;;;0.95;;
50337;SDS011;46221;51.178;5.900;2022-10-16T05:03:05;2.05;;;0.95;;
50337;SDS011;46221;51.178;5.900;2022-10-16T05:05:35;2.85;;;1.00;;
50337;SDS011;46221;51.178;5.900;2022-10-16T05:08:02;1.65;;;0.90;;
50337;SDS011;46221;51.178;5.900;2022-10-16T05:10:28;2.13;;;0.70;;
50337;SDS011;46221;51.178;5.900;2022-10-16T05:12:54;1.63;;;0.90;;
50337;SDS011;46221;51.178;5.900;2022-10-16T05:15:21;3.67;;;0.90;;
50337;SDS011;46221;51.178;5.900;2022-10-16T05:17:47;3.78;;;1.17;;
50337;SDS011;46221;51.178;5.900;2022-10-16T05:20:13;2.00;;;0.60;;
50337;SDS011;46221;51.178;5.900;2022-10-16T05:22:39;1.67;;;0.80;;
50337;SDS011;46221;51.178;5.900;2022-10-16T05:25:06;1.67;;;0.80;;
50337;SDS011;46221;51.178;5.900;2022-10-16T05:27:32;2.63;;;1.10;;
50337;SDS011;46221;51.178;5.900;2022-10-16T05:29:58;3.38;;;0.80;;
50337;SDS011;46221;51.178;5.900;2022-10-16T05:32:25;2.67;;;0.95;;
50337;SDS011;46221;51.178;5.900;2022-10-16T05:34:51;3.25;;;1.08;;
50337;SDS011;46221;51.178;5.900;2022-10-16T05:37:18;2.33;;;0.75;;
50337;SDS011;46221;51.178;5.900;2022-10-16T05:39:44;3.63;;;1.00;;
50337;SDS011;46221;51.178;5.900;2022-10-16T05:42:10;2.72;;;1.13;;
50337;SDS011;46221;51.178;5.900;2022-10-16T05:44:36;4.07;;;0.95;;
50337;SDS011;46221;51.178;5.900;2022-10-16T05:47:03;2.38;;;1.00;;
50337;SDS011;46221;51.178;5.900;2022-10-16T05:49:29;3.97;;;1.75;;
50337;SDS011;46221;51.178;5.900;2022-10-16T05:51:56;4.32;;;1.20;;
50337;SDS011;46221;51.178;5.900;2022-10-16T05:54:22;8.07;;;1.10;;
50337;SDS011;46221;51.178;5.900;2022-10-16T05:56:48;3.55;;;1.13;;
50337;SDS011;46221;51.178;5.900;2022-10-16T05:59:14;2.97;;;1.00;;
50337;SDS011;46221;51.178;5.900;2022-10-16T06:01:41;4.03;;;1.05;;
50337;SDS011;46221;51.178;5.900;2022-10-16T06:04:08;5.82;;;1.45;;
50337;SDS011;46221;51.178;5.900;2022-10-16T06:06:34;5.55;;;1.00;;
50337;SDS011;46221;51.178;5.900;2022-10-16T06:09:02;4.82;;;1.20;;
50337;SDS011;46221;51.178;5.900;2022-10-16T06:11:29;7.53;;;1.30;;
50337;SDS011;46221;51.178;5.900;2022-10-16T06:13:57;4.15;;;1.25;;
50337;SDS011;46221;51.178;5.900;2022-10-16T06:16:26;5.15;;;1.17;;
50337;SDS011;46221;51.178;5.900;2022-10-16T06:18:53;6.22;;;1.17;;
50337;SDS011;46221;51.178;5.900;2022-10-16T06:21:21;3.42;;;1.15;;
50337;SDS011;46221;51.178;5.900;2022-10-16T06:23:48;1.98;;;1.00;;
50337;SDS011;46221;51.178;5.900;2022-10-16T06:26:15;4.88;;;1.42;;
50337;SDS011;46221;51.178;5.900;2022-10-16T06:28:42;3.00;;;1.10;;
50337;SDS011;46221;51.178;5.900;2022-10-16T06:31:09;4.97;;;1.30;;
50337;SDS011;46221;51.178;5.900;2022-10-16T06:33:36;2.25;;;0.90;;
50337;SDS011;46221;51.178;5.900;2022-10-16T06:36:07;3.75;;;1.27;;
50337;SDS011;46221;51.178;5.900;2022-10-16T06:38:35;5.07;;;1.17;;
50337;SDS011;46221;51.178;5.900;2022-10-16T06:41:01;4.00;;;0.95;;
50337;SDS011;46221;51.178;5.900;2022-10-16T06:43:30;4.07;;;1.20;;
50337;SDS011;46221;51.178;5.900;2022-10-16T06:45:58;1.88;;;0.95;;
50337;SDS011;46221;51.178;5.900;2022-10-16T06:48:25;3.42;;;1.10;;
50337;SDS011;46221;51.178;5.900;2022-10-16T06:53:28;2.75;;;1.10;;
50337;SDS011;46221;51.178;5.900;2022-10-16T06:56:07;4.55;;;1.63;;
50337;SDS011;46221;51.178;5.900;2022-10-16T06:58:34;4.78;;;1.25;;
50337;SDS011;46221;51.178;5.900;2022-10-16T07:01:00;2.60;;;1.00;;
50337;SDS011;46221;51.178;5.900;2022-10-16T07:03:27;2.20;;;1.10;;
50337;SDS011;46221;51.178;5.900;2022-10-16T07:05:53;3.47;;;1.42;;
50337;SDS011;46221;51.178;5.900;2022-10-16T07:08:19;3.47;;;1.38;;
50337;SDS011;46221;51.178;5.900;2022-10-16T07:10:45;5.25;;;1.70;;
50337;SDS011;46221;51.178;5.900;2022-10-16T07:13:12;3.85;;;1.42;;
50337;SDS011;46221;51.178;5.900;2022-10-16T07:15:41;4.15;;;2.00;;
50337;SDS011;46221;51.178;5.900;2022-10-16T07:18:07;2.88;;;1.20;;
50337;SDS011;46221;51.178;5.900;2022-10-16T07:20:34;3.72;;;1.38;;
50337;SDS011;46221;51.178;5.900;2022-10-16T07:23:00;2.88;;;1.40;;
50337;SDS011;46221;51.178;5.900;2022-10-16T07:25:26;5.40;;;1.35;;
50337;SDS011;46221;51.178;5.900;2022-10-16T07:27:52;4.80;;;1.38;;
50337;SDS011;46221;51.178;5.900;2022-10-16T07:30:22;2.85;;;1.15;;
50337;SDS011;46221;51.178;5.900;2022-10-16T07:32:48;5.38;;;1.70;;
50337;SDS011;46221;51.178;5.900;2022-10-16T07:35:14;4.05;;;1.45;;
50337;SDS011;46221;51.178;5.900;2022-10-16T07:37:43;2.97;;;1.30;;
50337;SDS011;46221;51.178;5.900;2022-10-16T07:40:10;2.92;;;1.42;;
50337;SDS011;46221;51.178;5.900;2022-10-16T07:42:36;3.67;;;1.48;;
50337;SDS011;46221;51.178;5.900;2022-10-16T07:45:02;4.47;;;1.23;;
50337;SDS011;46221;51.178;5.900;2022-10-16T07:47:29;3.50;;;1.38;;
50337;SDS011;46221;51.178;5.900;2022-10-16T07:49:55;2.28;;;1.17;;
50337;SDS011;46221;51.178;5.900;2022-10-16T07:52:22;3.47;;;1.40;;
50337;SDS011;46221;51.178;5.900;2022-10-16T07:54:48;5.80;;;1.60;;
50337;SDS011;46221;51.178;5.900;2022-10-16T07:57:14;3.97;;;1.95;;
50337;SDS011;46221;51.178;5.900;2022-10-16T07:59:45;4.47;;;2.00;;
50337;SDS011;46221;51.178;5.900;2022-10-16T08:02:12;3.78;;;1.48;;
50337;SDS011;46221;51.178;5.900;2022-10-16T08:04:38;3.22;;;1.42;;
50337;SDS011;46221;51.178;5.900;2022-10-16T08:07:06;3.95;;;1.42;;
50337;SDS011;46221;51.178;5.900;2022-10-16T08:09:32;3.42;;;1.38;;
50337;SDS011;46221;51.178;5.900;2022-10-16T08:11:58;4.93;;;1.40;;
50337;SDS011;46221;51.178;5.900;2022-10-16T08:14:27;3.97;;;1.80;;
50337;SDS011;46221;51.178;5.900;2022-10-16T08:16:54;5.50;;;1.42;;
50337;SDS011;46221;51.178;5.900;2022-10-16T08:19:20;5.90;;;1.67;;
50337;SDS011;46221;51.178;5.900;2022-10-16T08:21:47;5.20;;;1.60;;
50337;SDS011;46221;51.178;5.900;2022-10-16T08:24:13;4.28;;;1.50;;
50337;SDS011;46221;51.178;5.900;2022-10-16T08:26:39;3.13;;;1.40;;
50337;SDS011;46221;51.178;5.900;2022-10-16T08:29:05;4.20;;;1.83;;
50337;SDS011;46221;51.178;5.900;2022-10-16T08:31:32;5.57;;;1.60;;
50337;SDS011;46221;51.178;5.900;2022-10-16T08:33:58;4.05;;;1.50;;
50337;SDS011;46221;51.178;5.900;2022-10-16T08:36:24;3.70;;;1.40;;
50337;SDS011;46221;51.178;5.900;2022-10-16T08:38:51;7.35;;;1.50;;
50337;SDS011;46221;51.178;5.900;2022-10-16T08:44:33;6.82;;;1.52;;
50337;SDS011;46221;51.178;5.900;2022-10-16T08:47:09;7.15;;;1.60;;
50337;SDS011;46221;51.178;5.900;2022-10-16T08:52:07;4.03;;;1.70;;
50337;SDS011;46221;51.178;5.900;2022-10-16T08:54:43;5.30;;;1.50;;
50337;SDS011;46221;51.178;5.900;2022-10-16T08:57:16;8.65;;;1.80;;
50337;SDS011;46221;51.178;5.900;2022-10-16T08:59:49;2.90;;;1.30;;
50337;SDS011;46221;51.178;5.900;2022-10-16T09:02:22;3.70;;;1.70;;
50337;SDS011;46221;51.178;5.900;2022-10-16T09:05:37;5.10;;;1.25;;
50337;SDS011;46221;51.178;5.900;2022-10-16T09:12:40;5.78;;;1.50;;
50337;SDS011;46221;51.178;5.900;2022-10-16T09:22:34;9.95;;;1.95;;
50337;SDS011;46221;51.178;5.900;2022-10-16T09:25:04;4.25;;;1.52;;
50337;SDS011;46221;51.178;5.900;2022-10-16T09:27:36;6.90;;;1.75;;
50337;SDS011;46221;51.178;5.900;2022-10-16T09:30:10;9.43;;;1.77;;
50337;SDS011;46221;51.178;5.900;2022-10-16T09:32:37;9.15;;;1.80;;
50337;SDS011;46221;51.178;5.900;2022-10-16T09:35:04;8.68;;;1.75;;
50337;SDS011;46221;51.178;5.900;2022-10-16T09:37:36;4.80;;;2.05;;
50337;SDS011;46221;51.178;5.900;2022-10-16T09:40:03;4.75;;;1.65;;
50337;SDS011;46221;51.178;5.900;2022-10-16T09:42:34;5.70;;;1.60;;
50337;SDS011;46221;51.178;5.900;2022-10-16T09:45:02;6.40;;;1.60;;
50337;SDS011;46221;51.178;5.900;2022-10-16T09:47:29;6.38;;;1.33;;
50337;SDS011;46221;51.178;5.900;2022-10-16T09:49:57;9.40;;;1.75;;
50337;SDS011;46221;51.178;5.900;2022-10-16T09:52:25;8.20;;;1.95;;
50337;SDS011;46221;51.178;5.900;2022-10-16T09:54:53;7.13;;;1.13;;
50337;SDS011;46221;51.178;5.900;2022-10-16T09:57:19;3.10;;;1.25;;
50337;SDS011;46221;51.178;5.900;2022-10-16T09:59:50;5.55;;;1.52;;
50337;SDS011;46221;51.178;5.900;2022-10-16T10:02:17;5.35;;;1.13;;
50337;SDS011;46221;51.178;5.900;2022-10-16T10:04:46;3.92;;;1.40;;
50337;SDS011;46221;51.178;5.900;2022-10-16T10:07:18;3.65;;;1.65;;
50337;SDS011;46221;51.178;5.900;2022-10-16T10:09:45;4.75;;;1.38;;
50337;SDS011;46221;51.178;5.900;2022-10-16T10:12:17;6.93;;;1.85;;
50337;SDS011;46221;51.178;5.900;2022-10-16T10:17:24;3.67;;;1.13;;
50337;SDS011;46221;51.178;5.900;2022-10-16T10:19:57;5.18;;;1.40;;
50337;SDS011;46221;51.178;5.900;2022-10-16T10:22:29;4.97;;;1.30;;
50337;SDS011;46221;51.178;5.900;2022-10-16T10:27:24;3.78;;;1.10;;
50337;SDS011;46221;51.178;5.900;2022-10-16T10:30:06;4.38;;;1.17;;
50337;SDS011;46221;51.178;5.900;2022-10-16T10:46:00;3.27;;;1.17;;
50337;SDS011;46221;51.178;5.900;2022-10-16T10:48:21;4.55;;;1.25;;
50337;SDS011;46221;51.178;5.900;2022-10-16T10:50:49;4.63;;;1.15;;
50337;SDS011;46221;51.178;5.900;2022-10-16T10:53:21;3.58;;;1.13;;
50337;SDS011;46221;51.178;5.900;2022-10-16T10:55:53;3.90;;;1.17;;
50337;SDS011;46221;51.178;5.900;2022-10-16T11:02:09;3.72;;;1.08;;
50337;SDS011;46221;51.178;5.900;2022-10-16T11:06:57;2.83;;;1.10;;
50337;SDS011;46221;51.178;5.900;2022-10-16T11:09:25;3.65;;;1.00;;
50337;SDS011;46221;51.178;5.900;2022-10-16T11:12:01;4.00;;;0.95;;
50337;SDS011;46221;51.178;5.900;2022-10-16T11:14:30;3.42;;;0.88;;
50337;SDS011;46221;51.178;5.900;2022-10-16T11:25:00;2.55;;;0.70;;
50337;SDS011;46221;51.178;5.900;2022-10-16T11:27:36;2.88;;;0.82;;
50337;SDS011;46221;51.178;5.900;2022-10-16T11:30:05;3.53;;;0.90;;
50337;SDS011;46221;51.178;5.900;2022-10-16T11:32:47;2.55;;;0.90;;
50337;SDS011;46221;51.178;5.900;2022-10-16T11:35:17;1.70;;;0.80;;
50337;SDS011;46221;51.178;5.900;2022-10-16T11:37:45;3.40;;;0.77;;
50337;SDS011;46221;51.178;5.900;2022-10-16T11:40:28;2.58;;;0.90;;
50337;SDS011;46221;51.178;5.900;2022-10-16T11:42:57;3.25;;;0.70;;
50337;SDS011;46221;51.178;5.900;2022-10-16T11:45:33;3.50;;;1.08;;
50337;SDS011;46221;51.178;5.900;2022-10-16T11:50:43;2.70;;;0.60;;
50337;SDS011;46221;51.178;5.900;2022-10-16T11:53:28;5.20;;;1.08;;
50337;SDS011;46221;51.178;5.900;2022-10-16T11:55:57;3.20;;;1.10;;
50337;SDS011;46221;51.178;5.900;2022-10-16T11:58:25;3.13;;;0.82;;
50337;SDS011;46221;51.178;5.900;2022-10-16T12:00:58;4.30;;;0.70;;
50337;SDS011;46221;51.178;5.900;2022-10-16T12:03:29;3.22;;;1.10;;
50337;SDS011;46221;51.178;5.900;2022-10-16T12:13:49;6.90;;;1.25;;
50337;SDS011;46221;51.178;5.900;2022-10-16T12:18:45;5.18;;;1.35;;
50337;SDS011;46221;51.178;5.900;2022-10-16T12:21:13;4.82;;;1.00;;
50337;SDS011;46221;51.178;5.900;2022-10-16T12:23:49;4.78;;;1.30;;
50337;SDS011;46221;51.178;5.900;2022-10-16T12:26:26;5.93;;;0.95;;
50337;SDS011;46221;51.178;5.900;2022-10-16T12:28:53;6.25;;;1.08;;
50337;SDS011;46221;51.178;5.900;2022-10-16T12:31:20;4.90;;;1.23;;
50337;SDS011;46221;51.178;5.900;2022-10-16T12:33:58;5.25;;;0.98;;
50337;SDS011;46221;51.178;5.900;2022-10-16T12:36:29;4.85;;;1.02;;
50337;SDS011;46221;51.178;5.900;2022-10-16T12:38:56;3.88;;;0.82;;
50337;SDS011;46221;51.178;5.900;2022-10-16T12:41:32;3.35;;;1.13;;
50337;SDS011;46221;51.178;5.900;2022-10-16T12:43:59;3.47;;;1.05;;
50337;SDS011;46221;51.178;5.900;2022-10-16T12:49:05;3.00;;;1.00;;
50337;SDS011;46221;51.178;5.900;2022-10-16T12:51:34;5.03;;;1.08;;
50337;SDS011;46221;51.178;5.900;2022-10-16T12:54:15;3.90;;;0.98;;
50337;SDS011;46221;51.178;5.900;2022-10-16T13:00:02;3.42;;;0.90;;
50337;SDS011;46221;51.178;5.900;2022-10-16T13:07:38;2.67;;;0.80;;
50337;SDS011;46221;51.178;5.900;2022-10-16T13:10:14;4.68;;;1.08;;
50337;SDS011;46221;51.178;5.900;2022-10-16T13:12:47;1.85;;;0.80;;
50337;SDS011;46221;51.178;5.900;2022-10-16T13:15:26;2.10;;;0.57;;
50337;SDS011;46221;51.178;5.900;2022-10-16T13:20:22;3.28;;;0.82;;
50337;SDS011;46221;51.178;5.900;2022-10-16T13:28:04;8.52;;;1.10;;
50337;SDS011;46221;51.178;5.900;2022-10-16T13:30:36;4.47;;;1.08;;
50337;SDS011;46221;51.178;5.900;2022-10-16T13:33:10;3.42;;;1.05;;
50337;SDS011;46221;51.178;5.900;2022-10-16T13:35:46;7.68;;;1.10;;
50337;SDS011;46221;51.178;5.900;2022-10-16T13:43:15;12.75;;;1.80;;
50337;SDS011;46221;51.178;5.900;2022-10-16T13:45:51;5.43;;;1.13;;
50337;SDS011;46221;51.178;5.900;2022-10-16T13:48:18;5.80;;;1.00;;
50337;SDS011;46221;51.178;5.900;2022-10-16T13:50:44;6.60;;;1.17;;
50337;SDS011;46221;51.178;5.900;2022-10-16T13:53:14;5.88;;;1.13;;
50337;SDS011;46221;51.178;5.900;2022-10-16T13:55:40;5.45;;;1.20;;
50337;SDS011;46221;51.178;5.900;2022-10-16T13:58:07;4.88;;;0.90;;
50337;SDS011;46221;51.178;5.900;2022-10-16T14:00:34;5.47;;;1.02;;
50337;SDS011;46221;51.178;5.900;2022-10-16T14:03:02;3.95;;;1.15;;
50337;SDS011;46221;51.178;5.900;2022-10-16T14:05:29;3.47;;;0.82;;
50337;SDS011;46221;51.178;5.900;2022-10-16T14:07:56;4.97;;;1.02;;
50337;SDS011;46221;51.178;5.900;2022-10-16T14:10:24;5.88;;;1.10;;
50337;SDS011;46221;51.178;5.900;2022-10-16T14:13:04;4.47;;;1.00;;
50337;SDS011;46221;51.178;5.900;2022-10-16T14:15:32;3.50;;;0.77;;
50337;SDS011;46221;51.178;5.900;2022-10-16T14:18:00;3.53;;;0.93;;
50337;SDS011;46221;51.178;5.900;2022-10-16T14:20:28;2.95;;;0.88;;
50337;SDS011;46221;51.178;5.900;2022-10-16T14:23:03;5.38;;;0.90;;
50337;SDS011;46221;51.178;5.900;2022-10-16T14:25:30;4.75;;;1.00;;
50337;SDS011;46221;51.178;5.900;2022-10-16T14:28:04;4.72;;;0.73;;
50337;SDS011;46221;51.178;5.900;2022-10-16T14:30:34;6.75;;;1.45;;
50337;SDS011;46221;51.178;5.900;2022-10-16T14:33:02;3.22;;;0.85;;
50337;SDS011;46221;51.178;5.900;2022-10-16T14:37:56;7.32;;;0.90;;
50337;SDS011;46221;51.178;5.900;2022-10-16T14:40:23;5.60;;;1.00;;
50337;SDS011;46221;51.178;5.900;2022-10-16T14:42:50;6.18;;;1.27;;
50337;SDS011;46221;51.178;5.900;2022-10-16T14:45:20;5.70;;;2.10;;
50337;SDS011;46221;51.178;5.900;2022-10-16T14:47:48;8.27;;;1.27;;
50337;SDS011;46221;51.178;5.900;2022-10-16T14:50:15;4.30;;;1.00;;
50337;SDS011;46221;51.178;5.900;2022-10-16T14:52:42;6.03;;;1.00;;
50337;SDS011;46221;51.178;5.900;2022-10-16T14:55:09;3.35;;;0.73;;
50337;SDS011;46221;51.178;5.900;2022-10-16T14:57:36;5.32;;;1.08;;
50337;SDS011;46221;51.178;5.900;2022-10-16T15:00:04;5.57;;;0.90;;
50337;SDS011;46221;51.178;5.900;2022-10-16T15:02:33;3.20;;;0.82;;
50337;SDS011;46221;51.178;5.900;2022-10-16T15:05:19;4.45;;;1.25;;
50337;SDS011;46221;51.178;5.900;2022-10-16T15:10:41;4.20;;;0.93;;
50337;SDS011;46221;51.178;5.900;2022-10-16T15:13:12;6.40;;;1.00;;
50337;SDS011;46221;51.178;5.900;2022-10-16T15:15:43;3.92;;;0.80;;
50337;SDS011;46221;51.178;5.900;2022-10-16T15:18:10;5.07;;;1.23;;
50337;SDS011;46221;51.178;5.900;2022-10-16T15:20:39;3.97;;;1.02;;
50337;SDS011;46221;51.178;5.900;2022-10-16T15:23:06;3.97;;;0.93;;
50337;SDS011;46221;51.178;5.900;2022-10-16T15:25:37;3.65;;;1.52;;
50337;SDS011;46221;51.178;5.900;2022-10-16T15:28:05;4.82;;;1.10;;
50337;SDS011;46221;51.178;5.900;2022-10-16T15:30:33;2.60;;;1.05;;
50337;SDS011;46221;51.178;5.900;2022-10-16T15:32:59;9.15;;;1.70;;
50337;SDS011;46221;51.178;5.900;2022-10-16T15:35:25;10.02;;;1.88;;
50337;SDS011;46221;51.178;5.900;2022-10-16T15:37:52;10.68;;;2.17;;
50337;SDS011;46221;51.178;5.900;2022-10-16T15:40:19;8.95;;;2.20;;
50337;SDS011;46221;51.178;5.900;2022-10-16T15:42:46;9.48;;;2.33;;
50337;SDS011;46221;51.178;5.900;2022-10-16T15:45:12;14.40;;;3.15;;
50337;SDS011;46221;51.178;5.900;2022-10-16T15:47:40;15.80;;;3.35;;
50337;SDS011;46221;51.178;5.900;2022-10-16T15:50:11;9.45;;;2.67;;
50337;SDS011;46221;51.178;5.900;2022-10-16T15:52:38;13.05;;;3.40;;
50337;SDS011;46221;51.178;5.900;2022-10-16T15:55:08;13.65;;;3.85;;
50337;SDS011;46221;51.178;5.900;2022-10-16T15:57:35;10.57;;;2.92;;
50337;SDS011;46221;51.178;5.900;2022-10-16T16:00:05;8.70;;;2.55;;
50337;SDS011;46221;51.178;5.900;2022-10-16T16:02:35;9.32;;;2.67;;
50337;SDS011;46221;51.178;5.900;2022-10-16T16:05:02;8.25;;;2.20;;
50337;SDS011;46221;51.178;5.900;2022-10-16T16:07:32;10.00;;;2.35;;
50337;SDS011;46221;51.178;5.900;2022-10-16T16:09:58;9.65;;;2.45;;
50337;SDS011;46221;51.178;5.900;2022-10-16T16:12:24;6.00;;;1.80;;
50337;SDS011;46221;51.178;5.900;2022-10-16T16:14:51;6.43;;;1.98;;
50337;SDS011;46221;51.178;5.900;2022-10-16T16:17:17;9.43;;;2.47;;
50337;SDS011;46221;51.178;5.900;2022-10-16T16:19:45;6.90;;;1.77;;
50337;SDS011;46221;51.178;5.900;2022-10-16T16:22:11;5.70;;;1.80;;
50337;SDS011;46221;51.178;5.900;2022-10-16T16:24:38;6.72;;;2.10;;
50337;SDS011;46221;51.178;5.900;2022-10-16T16:27:08;7.53;;;1.92;;
50337;SDS011;46221;51.178;5.900;2022-10-16T16:29:34;7.50;;;2.20;;
50337;SDS011;46221;51.178;5.900;2022-10-16T16:32:01;8.13;;;1.83;;
50337;SDS011;46221;51.178;5.900;2022-10-16T16:34:27;6.82;;;1.70;;
50337;SDS011;46221;51.178;5.900;2022-10-16T16:36:54;6.68;;;1.88;;
50337;SDS011;46221;51.178;5.900;2022-10-16T16:39:20;4.32;;;1.40;;
50337;SDS011;46221;51.178;5.900;2022-10-16T16:41:47;8.55;;;2.10;;
50337;SDS011;46221;51.178;5.900;2022-10-16T16:44:13;5.43;;;1.50;;
50337;SDS011;46221;51.178;5.900;2022-10-16T16:46:40;5.15;;;1.50;;
50337;SDS011;46221;51.178;5.900;2022-10-16T16:49:09;5.43;;;1.50;;